createdAt,value
2018-01-13T00:00:36.918Z,29.7
2018-01-13T00:01:37.356Z,29.7
2018-01-13T00:02:37.345Z,29.7
2018-01-13T00:03:34.527Z,29.7
2018-01-13T00:04:34.272Z,29.7
2018-01-13T00:05:34.288Z,29.7
2018-01-13T00:06:34.328Z,29.7
2018-01-13T00:07:34.671Z,29.7
2018-01-13T00:08:37.608Z,29.7
2018-01-13T00:09:34.839Z,29.7
2018-01-13T00:10:37.722Z,29.7
2018-01-13T00:11:37.693Z,29.7
2018-01-13T00:12:34.568Z,29.7
2018-01-13T00:13:34.935Z,29.6
2018-01-13T00:14:34.687Z,29.7
2018-01-13T00:15:34.681Z,29.7
2018-01-13T00:16:34.963Z,29.7
2018-01-13T00:17:37.955Z,29.7
2018-01-13T00:18:35.123Z,29.7
2018-01-13T00:19:34.852Z,29.7
2018-01-13T00:20:38.050Z,29.7
2018-01-13T00:21:37.823Z,29.7
2018-01-13T00:22:37.882Z,29.7
2018-01-13T00:23:35.086Z,29.7
2018-01-13T00:24:38.355Z,29.7
2018-01-13T00:25:35.172Z,29.7
2018-01-13T00:26:35.190Z,29.6
2018-01-13T00:27:35.308Z,29.7
2018-01-13T00:28:35.384Z,29.6
2018-01-13T00:29:35.636Z,29.7
2018-01-13T00:30:35.344Z,29.7
2018-01-13T00:31:35.460Z,29.7
2018-01-13T00:32:35.495Z,29.6
2018-01-13T00:33:35.875Z,29.7
2018-01-13T00:34:38.445Z,29.7
2018-01-13T00:35:35.640Z,29.7
2018-01-13T00:36:35.724Z,29.7
2018-01-13T00:37:35.741Z,29.7
2018-01-13T00:38:35.893Z,29.7
2018-01-13T00:39:35.827Z,29.7
2018-01-13T00:40:35.865Z,29.7
2018-01-13T00:41:35.920Z,29.7
2018-01-13T00:42:36.312Z,29.7
2018-01-13T00:43:36.003Z,29.6
2018-01-13T00:44:39.285Z,29.7
2018-01-13T00:45:39.368Z,29.7
2018-01-13T00:46:36.206Z,29.7
2018-01-13T00:47:39.133Z,29.7
2018-01-13T00:48:39.542Z,29.7
2018-01-13T00:49:39.309Z,29.7
2018-01-13T00:50:36.519Z,29.7
2018-01-13T00:51:36.525Z,29.6
2018-01-13T00:52:36.584Z,29.6
2018-01-13T00:53:36.965Z,29.6
2018-01-13T00:54:39.614Z,29.6
2018-01-13T00:55:39.969Z,29.6
2018-01-13T00:56:36.810Z,29.6
2018-01-13T00:57:37.203Z,29.6
2018-01-13T00:58:36.997Z,29.6
2018-01-13T00:59:37.046Z,29.6
2018-01-13T01:00:37.021Z,29.7
2018-01-13T01:01:37.045Z,29.6
2018-01-13T01:02:40.235Z,29.7
2018-01-13T01:03:37.120Z,29.7
2018-01-13T01:04:40.390Z,29.7
2018-01-13T01:05:40.464Z,29.6
2018-01-13T01:06:40.503Z,29.6
2018-01-13T01:07:40.595Z,29.6
2018-01-13T01:08:37.504Z,29.6
2018-01-13T01:09:37.570Z,29.6
2018-01-13T01:10:40.816Z,29.6
2018-01-13T01:11:37.964Z,29.6
2018-01-13T01:12:37.706Z,29.6
2018-01-13T01:13:38.096Z,29.6
2018-01-13T01:14:38.169Z,29.6
2018-01-13T01:15:37.948Z,29.6
2018-01-13T01:16:38.306Z,29.6
2018-01-13T01:17:41.324Z,29.6
2018-01-13T01:18:38.112Z,29.6
2018-01-13T01:19:38.508Z,29.6
2018-01-13T01:20:41.432Z,29.6
2018-01-13T01:21:41.511Z,29.6
2018-01-13T01:22:41.468Z,29.6
2018-01-13T01:23:41.233Z,29.6
2018-01-13T01:24:41.551Z,29.6
2018-01-13T01:25:38.758Z,29.6
2018-01-13T01:26:38.813Z,29.6
2018-01-13T01:27:38.616Z,29.6
2018-01-13T01:28:38.985Z,29.6
2018-01-13T01:29:38.748Z,29.6
2018-01-13T01:30:38.856Z,29.6
2018-01-13T01:31:38.897Z,29.6
2018-01-13T01:32:38.866Z,29.6
2018-01-13T01:33:38.861Z,29.6
2018-01-13T01:34:39.276Z,29.5
2018-01-13T01:35:42.236Z,29.6
2018-01-13T01:36:42.298Z,29.6
2018-01-13T01:37:39.145Z,29.6
2018-01-13T01:38:39.234Z,29.5
2018-01-13T01:39:42.116Z,29.6
2018-01-13T01:40:39.307Z,29.5
2018-01-13T01:41:39.681Z,29.6
2018-01-13T01:42:42.624Z,29.6
2018-01-13T01:43:39.529Z,29.6
2018-01-13T01:44:39.542Z,29.6
2018-01-13T01:45:39.554Z,29.6
2018-01-13T01:46:39.662Z,29.5
2018-01-13T01:47:42.509Z,29.6
2018-01-13T01:48:39.728Z,29.5
2018-01-13T01:49:39.719Z,29.6
2018-01-13T01:50:39.813Z,29.5
2018-01-13T01:51:43.029Z,29.6
2018-01-13T01:52:43.064Z,29.6
2018-01-13T01:53:43.139Z,29.5
2018-01-13T01:54:40.257Z,29.5
2018-01-13T01:55:40.018Z,29.5
2018-01-13T01:56:43.225Z,29.5
2018-01-13T01:57:40.097Z,29.5
2018-01-13T01:58:43.310Z,29.5
2018-01-13T01:59:43.422Z,29.5
2018-01-13T02:00:40.646Z,29.5
2018-01-13T02:01:40.713Z,29.5
2018-01-13T02:02:43.631Z,29.5
2018-01-13T02:03:43.622Z,29.5
2018-01-13T02:04:43.607Z,29.5
2018-01-13T02:05:40.839Z,29.5
2018-01-13T02:06:40.576Z,29.5
2018-01-13T02:07:43.787Z,29.5
2018-01-13T02:08:43.899Z,29.5
2018-01-13T02:09:40.771Z,29.5
2018-01-13T02:10:43.938Z,29.5
2018-01-13T02:11:40.812Z,29.5
2018-01-13T02:12:43.758Z,29.5
2018-01-13T02:13:40.970Z,29.5
2018-01-13T02:14:44.156Z,29.5
2018-01-13T02:15:41.090Z,29.5
2018-01-13T02:16:44.312Z,29.5
2018-01-13T02:17:44.010Z,29.5
2018-01-13T02:18:44.413Z,29.5
2018-01-13T02:19:41.571Z,29.5
2018-01-13T02:20:44.511Z,29.5
2018-01-13T02:21:44.495Z,29.5
2018-01-13T02:22:41.419Z,29.5
2018-01-13T02:23:41.523Z,29.5
2018-01-13T02:24:44.712Z,29.5
2018-01-13T02:25:44.788Z,29.5
2018-01-13T02:26:44.622Z,29.5
2018-01-13T02:27:44.919Z,29.5
2018-01-13T02:28:42.084Z,29.5
2018-01-13T02:29:45.035Z,29.5
2018-01-13T02:30:41.905Z,29.5
2018-01-13T02:31:42.226Z,29.5
2018-01-13T02:32:42.270Z,29.4
2018-01-13T02:33:41.997Z,29.5
2018-01-13T02:34:42.062Z,29.5
2018-01-13T02:35:42.455Z,29.5
2018-01-13T02:36:45.418Z,29.5
2018-01-13T02:37:45.458Z,29.5
2018-01-13T02:38:42.238Z,29.5
2018-01-13T02:39:42.365Z,29.5
2018-01-13T02:40:45.274Z,29.5
2018-01-13T02:41:42.501Z,29.4
2018-01-13T02:42:45.650Z,29.5
2018-01-13T02:43:42.905Z,29.5
2018-01-13T02:44:45.832Z,29.5
2018-01-13T02:45:42.915Z,29.5
2018-01-13T02:46:42.683Z,29.5
2018-01-13T02:47:42.715Z,29.5
2018-01-13T02:48:43.063Z,29.4
2018-01-13T02:49:42.780Z,29.5
2018-01-13T02:50:43.104Z,29.4
2018-01-13T02:51:45.761Z,29.5
2018-01-13T02:52:45.829Z,29.4
2018-01-13T02:53:43.320Z,29.5
2018-01-13T02:54:45.984Z,29.5
2018-01-13T02:55:43.373Z,29.5
2018-01-13T02:56:43.088Z,29.5
2018-01-13T02:57:46.327Z,29.4
2018-01-13T02:58:46.025Z,29.5
2018-01-13T02:59:43.477Z,29.5
2018-01-13T03:00:46.418Z,29.5
2018-01-13T03:01:43.246Z,29.4
2018-01-13T03:02:43.329Z,29.4
2018-01-13T03:03:46.572Z,29.4
2018-01-13T03:04:46.666Z,29.4
2018-01-13T03:05:43.777Z,29.4
2018-01-13T03:06:43.550Z,29.5
2018-01-13T03:07:46.837Z,29.5
2018-01-13T03:08:43.747Z,29.4
2018-01-13T03:09:43.717Z,29.4
2018-01-13T03:10:46.917Z,29.4
2018-01-13T03:11:43.744Z,29.4
2018-01-13T03:12:43.859Z,29.4
2018-01-13T03:13:46.808Z,29.4
2018-01-13T03:14:47.098Z,29.4
2018-01-13T03:15:44.295Z,29.4
2018-01-13T03:16:47.230Z,29.4
2018-01-13T03:17:44.365Z,29.4
2018-01-13T03:18:44.347Z,29.4
2018-01-13T03:19:44.157Z,29.4
2018-01-13T03:20:44.274Z,29.4
2018-01-13T03:21:44.266Z,29.4
2018-01-13T03:22:47.150Z,29.4
2018-01-13T03:23:47.220Z,29.4
2018-01-13T03:24:44.696Z,29.4
2018-01-13T03:25:44.424Z,29.4
2018-01-13T03:26:47.704Z,29.4
2018-01-13T03:27:47.734Z,29.4
2018-01-13T03:28:47.483Z,29.4
2018-01-13T03:29:44.967Z,29.4
2018-01-13T03:30:45.049Z,29.4
2018-01-13T03:31:44.758Z,29.4
2018-01-13T03:32:45.152Z,29.4
2018-01-13T03:33:48.098Z,29.4
2018-01-13T03:34:45.040Z,29.4
2018-01-13T03:35:45.385Z,29.4
2018-01-13T03:36:45.462Z,29.4
2018-01-13T03:37:48.464Z,29.4
2018-01-13T03:38:45.265Z,29.4
2018-01-13T03:39:45.320Z,29.4
2018-01-13T03:40:48.601Z,29.4
2018-01-13T03:41:48.613Z,29.4
2018-01-13T03:42:48.666Z,29.4
2018-01-13T03:43:45.439Z,29.4
2018-01-13T03:44:45.849Z,29.4
2018-01-13T03:45:45.640Z,29.4
2018-01-13T03:46:45.665Z,29.4
2018-01-13T03:47:46.037Z,29.4
2018-01-13T03:48:46.086Z,29.4
2018-01-13T03:49:49.052Z,29.4
2018-01-13T03:50:45.952Z,29.4
2018-01-13T03:51:46.281Z,29.4
2018-01-13T03:52:46.319Z,29.4
2018-01-13T03:53:46.281Z,29.4
2018-01-13T03:54:46.028Z,29.4
2018-01-13T03:55:46.449Z,29.4
2018-01-13T03:56:46.187Z,29.4
2018-01-13T03:57:46.533Z,29.4
2018-01-13T03:58:46.370Z,29.4
2018-01-13T03:59:46.393Z,29.4
2018-01-13T04:00:46.467Z,29.4
2018-01-13T04:01:49.767Z,29.4
2018-01-13T04:02:46.952Z,29.4
2018-01-13T04:03:49.528Z,29.3
2018-01-13T04:04:49.910Z,29.4
2018-01-13T04:05:47.077Z,29.4
2018-01-13T04:06:49.723Z,29.4
2018-01-13T04:07:47.200Z,29.4
2018-01-13T04:08:49.853Z,29.4
2018-01-13T04:09:47.378Z,29.4
2018-01-13T04:10:49.927Z,29.3
2018-01-13T04:11:47.178Z,29.4
2018-01-13T04:12:50.450Z,29.3
2018-01-13T04:13:50.410Z,29.4
2018-01-13T04:14:47.267Z,29.3
2018-01-13T04:15:50.524Z,29.4
2018-01-13T04:16:47.757Z,29.4
2018-01-13T04:17:50.723Z,29.4
2018-01-13T04:18:50.744Z,29.4
2018-01-13T04:19:50.848Z,29.3
2018-01-13T04:20:50.879Z,29.3
2018-01-13T04:21:48.072Z,29.3
2018-01-13T04:22:47.764Z,29.3
2018-01-13T04:23:48.051Z,29.3
2018-01-13T04:24:48.216Z,29.3
2018-01-13T04:25:47.970Z,29.3
2018-01-13T04:26:48.252Z,29.3
2018-01-13T04:27:51.192Z,29.3
2018-01-13T04:28:51.275Z,29.3
2018-01-13T04:29:48.473Z,29.4
2018-01-13T04:30:51.091Z,29.3
2018-01-13T04:31:48.297Z,29.3
2018-01-13T04:32:51.538Z,29.3
2018-01-13T04:33:48.382Z,29.3
2018-01-13T04:34:48.317Z,29.3
2018-01-13T04:35:48.714Z,29.3
2018-01-13T04:36:48.770Z,29.3
2018-01-13T04:37:48.496Z,29.3
2018-01-13T04:38:51.736Z,29.3
2018-01-13T04:39:51.445Z,29.3
2018-01-13T04:40:48.567Z,29.3
2018-01-13T04:41:48.955Z,29.3
2018-01-13T04:42:49.011Z,29.3
2018-01-13T04:43:48.749Z,29.3
2018-01-13T04:44:49.097Z,29.3
2018-01-13T04:45:52.079Z,29.3
2018-01-13T04:46:52.185Z,29.3
2018-01-13T04:47:48.952Z,29.3
2018-01-13T04:48:52.231Z,29.3
2018-01-13T04:49:51.924Z,29.3
2018-01-13T04:50:49.010Z,29.3
2018-01-13T04:51:49.139Z,29.3
2018-01-13T04:52:52.365Z,29.3
2018-01-13T04:53:52.130Z,29.3
2018-01-13T04:54:49.567Z,29.3
2018-01-13T04:55:52.529Z,29.3
2018-01-13T04:56:49.646Z,29.3
2018-01-13T04:57:49.722Z,29.3
2018-01-13T04:58:52.349Z,29.3
2018-01-13T04:59:49.510Z,29.3
2018-01-13T05:00:52.461Z,29.3
2018-01-13T05:01:49.581Z,29.3
2018-01-13T05:02:49.605Z,29.3
2018-01-13T05:03:49.955Z,29.3
2018-01-13T05:04:49.682Z,29.3
2018-01-13T05:05:52.916Z,29.3
2018-01-13T05:06:49.732Z,29.3
2018-01-13T05:07:53.033Z,29.3
2018-01-13T05:08:53.163Z,29.3
2018-01-13T05:09:49.984Z,29.3
2018-01-13T05:10:50.357Z,29.3
2018-01-13T05:11:50.120Z,29.3
2018-01-13T05:12:53.419Z,29.3
2018-01-13T05:13:50.644Z,29.3
2018-01-13T05:14:50.299Z,29.3
2018-01-13T05:15:50.344Z,29.3
2018-01-13T05:16:50.409Z,29.3
2018-01-13T05:17:53.603Z,29.3
2018-01-13T05:18:50.517Z,29.3
2018-01-13T05:19:50.620Z,29.3
2018-01-13T05:20:50.916Z,29.3
2018-01-13T05:21:50.597Z,29.3
2018-01-13T05:22:50.973Z,29.3
2018-01-13T05:23:50.766Z,29.3
2018-01-13T05:24:51.032Z,29.3
2018-01-13T05:25:54.062Z,29.3
2018-01-13T05:26:54.093Z,29.3
2018-01-13T05:27:50.959Z,29.3
2018-01-13T05:28:51.314Z,29.3
2018-01-13T05:29:51.060Z,29.3
2018-01-13T05:30:51.412Z,29.3
2018-01-13T05:31:51.133Z,29.3
2018-01-13T05:32:54.162Z,29.3
2018-01-13T05:33:51.611Z,29.3
2018-01-13T05:34:51.359Z,29.3
2018-01-13T05:35:54.611Z,29.3
2018-01-13T05:36:51.707Z,29.3
2018-01-13T05:37:51.519Z,29.3
2018-01-13T05:38:54.754Z,29.3
2018-01-13T05:39:51.666Z,29.3
2018-01-13T05:40:54.969Z,29.3
2018-01-13T05:41:52.081Z,29.3
2018-01-13T05:42:55.055Z,29.3
2018-01-13T05:43:52.203Z,29.3
2018-01-13T05:44:52.166Z,29.3
2018-01-13T05:45:52.217Z,29.3
2018-01-13T05:46:52.422Z,29.3
2018-01-13T05:47:52.412Z,29.3
2018-01-13T05:48:55.283Z,29.3
2018-01-13T05:49:52.523Z,29.3
2018-01-13T05:50:55.427Z,29.3
2018-01-13T05:51:52.271Z,29.3
2018-01-13T05:52:52.632Z,29.3
2018-01-13T05:53:55.553Z,29.3
2018-01-13T05:54:55.517Z,29.3
2018-01-13T05:55:52.664Z,29.3
2018-01-13T05:56:55.566Z,29.2
2018-01-13T05:57:52.750Z,29.3
2018-01-13T05:58:52.813Z,29.3
2018-01-13T05:59:55.759Z,29.2
2018-01-13T06:00:52.621Z,29.3
2018-01-13T06:01:55.911Z,29.3
2018-01-13T06:02:52.814Z,29.3
2018-01-13T06:03:53.069Z,29.3
2018-01-13T06:04:53.191Z,29.3
2018-01-13T06:05:53.145Z,29.3
2018-01-13T06:06:55.796Z,29.3
2018-01-13T06:07:53.289Z,29.3
2018-01-13T06:08:53.366Z,29.2
2018-01-13T06:09:55.991Z,29.3
2018-01-13T06:10:53.482Z,29.3
2018-01-13T06:11:56.457Z,29.2
2018-01-13T06:12:53.290Z,29.2
2018-01-13T06:13:56.248Z,29.2
2018-01-13T06:14:56.299Z,29.2
2018-01-13T06:15:56.366Z,29.3
2018-01-13T06:16:53.467Z,29.3
2018-01-13T06:17:53.495Z,29.2
2018-01-13T06:18:56.788Z,29.3
2018-01-13T06:19:53.691Z,29.3
2018-01-13T06:20:54.051Z,29.2
2018-01-13T06:21:53.768Z,29.3
2018-01-13T06:22:54.138Z,29.2
2018-01-13T06:23:56.761Z,29.3
2018-01-13T06:24:57.141Z,29.2
2018-01-13T06:25:54.342Z,29.2
2018-01-13T06:26:54.116Z,29.2
2018-01-13T06:27:57.059Z,29.2
2018-01-13T06:28:57.396Z,29.2
2018-01-13T06:29:54.558Z,29.2
2018-01-13T06:30:57.129Z,29.2
2018-01-13T06:31:54.641Z,29.2
2018-01-13T06:32:54.682Z,29.3
2018-01-13T06:33:54.449Z,29.2
2018-01-13T06:34:54.856Z,29.2
2018-01-13T06:35:54.926Z,29.2
2018-01-13T06:36:57.854Z,29.2
2018-01-13T06:37:54.674Z,29.2
2018-01-13T06:38:57.962Z,29.2
2018-01-13T06:39:54.805Z,29.2
2018-01-13T06:40:57.651Z,29.2
2018-01-13T06:41:55.131Z,29.2
2018-01-13T06:42:58.013Z,29.2
2018-01-13T06:43:54.871Z,29.2
2018-01-13T06:44:55.029Z,29.2
2018-01-13T06:45:58.209Z,29.2
2018-01-13T06:46:55.404Z,29.2
2018-01-13T06:47:55.171Z,29.2
2018-01-13T06:48:55.141Z,29.2
2018-01-13T06:49:55.469Z,29.1
2018-01-13T06:50:55.176Z,29.2
2018-01-13T06:51:58.399Z,29.2
2018-01-13T06:52:58.435Z,29.2
2018-01-13T06:53:55.294Z,29.2
2018-01-13T06:54:55.289Z,29.2
2018-01-13T06:55:55.342Z,29.2
2018-01-13T06:56:58.328Z,29.2
2018-01-13T06:57:58.682Z,29.1
2018-01-13T06:58:55.487Z,29.2
2018-01-13T06:59:55.869Z,29.2
2018-01-13T07:00:55.977Z,29.2
2018-01-13T07:01:55.621Z,29.2
2018-01-13T07:02:55.722Z,29.2
2018-01-13T07:03:58.877Z,29.2
2018-01-13T07:04:58.896Z,29.2
2018-01-13T07:05:58.989Z,29.2
2018-01-13T07:06:55.831Z,29.2
2018-01-13T07:07:55.874Z,29.1
2018-01-13T07:08:55.926Z,29.2
2018-01-13T07:09:56.353Z,29.2
2018-01-13T07:10:55.998Z,29.2
2018-01-13T07:11:56.044Z,29.2
2018-01-13T07:12:56.392Z,29.1
2018-01-13T07:13:56.199Z,29.2
2018-01-13T07:14:56.437Z,29.2
2018-01-13T07:15:59.388Z,29.2
2018-01-13T07:16:56.299Z,29.2
2018-01-13T07:17:59.268Z,29.2
2018-01-13T07:18:56.795Z,29.1
2018-01-13T07:19:56.821Z,29.2
2018-01-13T07:20:56.879Z,29.2
2018-01-13T07:21:56.557Z,29.2
2018-01-13T07:22:56.543Z,29.2
2018-01-13T07:23:56.912Z,29.2
2018-01-13T07:24:56.569Z,29.2
2018-01-13T07:25:59.867Z,29.2
2018-01-13T07:26:57.061Z,29.2
2018-01-13T07:27:56.867Z,29.2
2018-01-13T07:28:56.868Z,29.2
2018-01-13T07:29:57.251Z,29.2
2018-01-13T07:30:57.057Z,29.2
2018-01-13T07:31:57.010Z,29.2
2018-01-13T07:32:57.383Z,29.2
2018-01-13T07:33:57.086Z,29.2
2018-01-13T07:34:57.451Z,29.2
2018-01-13T07:35:57.214Z,29.2
2018-01-13T07:36:57.293Z,29.2
2018-01-13T07:37:57.298Z,29.1
2018-01-13T07:39:00.546Z,29.2
2018-01-13T07:39:57.435Z,29.2
2018-01-13T07:40:57.483Z,29.2
2018-01-13T07:41:57.545Z,29.2
2018-01-13T07:42:57.652Z,29.1
2018-01-13T07:43:57.642Z,29.2
2018-01-13T07:45:00.892Z,29.2
2018-01-13T07:45:58.093Z,29.2
2018-01-13T07:46:57.804Z,29.1
2018-01-13T07:47:58.179Z,29.2
2018-01-13T07:48:57.883Z,29.2
2018-01-13T07:50:00.803Z,29.2
2018-01-13T07:50:57.991Z,29.2
2018-01-13T07:51:58.420Z,29.2
2018-01-13T07:52:58.375Z,29.2
2018-01-13T07:54:01.375Z,29.2
2018-01-13T07:54:58.138Z,29.2
2018-01-13T07:55:58.259Z,29.2
2018-01-13T07:57:01.087Z,29.2
2018-01-13T07:58:01.162Z,29.1
2018-01-13T07:58:58.659Z,29.2
2018-01-13T07:59:58.763Z,29.1
2018-01-13T08:00:58.516Z,29.2
2018-01-13T08:01:58.796Z,29.1
2018-01-13T08:03:01.783Z,29.2
2018-01-13T08:04:01.814Z,29.2
2018-01-13T08:04:58.608Z,29.2
2018-01-13T08:05:58.970Z,29.2
2018-01-13T08:06:59.072Z,29.2
2018-01-13T08:07:59.094Z,29.1
2018-01-13T08:08:58.814Z,29.2
2018-01-13T08:09:58.796Z,29.2
2018-01-13T08:11:02.112Z,29.1
2018-01-13T08:11:58.981Z,29.2
2018-01-13T08:12:59.320Z,29.2
2018-01-13T08:13:59.437Z,29.2
2018-01-13T08:15:02.284Z,29.1
2018-01-13T08:15:59.202Z,29.2
2018-01-13T08:16:59.240Z,29.2
2018-01-13T08:18:02.471Z,29.1
2018-01-13T08:19:02.515Z,29.1
2018-01-13T08:20:02.572Z,29.1
2018-01-13T08:20:59.723Z,29.2
2018-01-13T08:22:02.626Z,29.2
2018-01-13T08:22:59.800Z,29.2
2018-01-13T08:23:59.561Z,29.2
2018-01-13T08:24:59.967Z,29.1
2018-01-13T08:25:59.739Z,29.1
2018-01-13T08:27:00.115Z,29.1
2018-01-13T08:27:59.894Z,29.1
2018-01-13T08:29:02.848Z,29.1
2018-01-13T08:30:03.264Z,29.2
2018-01-13T08:31:03.300Z,29.2
2018-01-13T08:32:00.479Z,29.2
2018-01-13T08:33:00.386Z,29.2
2018-01-13T08:34:03.106Z,29.2
2018-01-13T08:35:00.310Z,29.2
2018-01-13T08:36:03.477Z,29.1
2018-01-13T08:37:00.416Z,29.2
2018-01-13T08:38:00.387Z,29.2
2018-01-13T08:39:00.762Z,29.2
2018-01-13T08:40:00.461Z,29.2
2018-01-13T08:41:00.532Z,29.1
2018-01-13T08:42:00.903Z,29.2
2018-01-13T08:43:03.780Z,29.2
2018-01-13T08:44:00.980Z,29.2
2018-01-13T08:45:03.559Z,29.2
2018-01-13T08:46:03.969Z,29.2
2018-01-13T08:47:00.808Z,29.2
2018-01-13T08:48:03.963Z,29.2
2018-01-13T08:49:01.122Z,29.1
2018-01-13T08:50:04.178Z,29.2
2018-01-13T08:51:01.004Z,29.2
2018-01-13T08:52:01.090Z,29.2
2018-01-13T08:53:04.325Z,29.2
2018-01-13T08:54:01.472Z,29.2
2018-01-13T08:55:04.511Z,29.2
2018-01-13T08:56:04.281Z,29.2
2018-01-13T08:57:01.472Z,29.2
2018-01-13T08:58:04.739Z,29.2
2018-01-13T08:59:04.770Z,29.3
2018-01-13T09:00:02.016Z,29.3
2018-01-13T09:01:04.935Z,29.3
2018-01-13T09:02:04.963Z,29.3
2018-01-13T09:03:05.044Z,29.3
2018-01-13T09:04:05.181Z,29.3
2018-01-13T09:05:02.336Z,29.3
2018-01-13T09:06:04.905Z,29.3
2018-01-13T09:07:02.270Z,29.3
2018-01-13T09:08:05.039Z,29.2
2018-01-13T09:09:02.172Z,29.3
2018-01-13T09:10:05.465Z,29.3
2018-01-13T09:11:02.617Z,29.3
2018-01-13T09:12:02.405Z,29.3
2018-01-13T09:13:02.800Z,29.3
2018-01-13T09:14:02.758Z,29.3
2018-01-13T09:15:05.466Z,29.3
2018-01-13T09:16:02.640Z,29.3
2018-01-13T09:17:05.495Z,29.3
2018-01-13T09:18:05.806Z,29.2
2018-01-13T09:19:02.703Z,29.3
2018-01-13T09:20:05.976Z,29.3
2018-01-13T09:21:05.681Z,29.3
2018-01-13T09:22:06.090Z,29.3
2018-01-13T09:23:02.905Z,29.3
2018-01-13T09:24:03.225Z,29.3
2018-01-13T09:25:02.948Z,29.3
2018-01-13T09:26:03.341Z,29.3
2018-01-13T09:27:03.040Z,29.3
2018-01-13T09:28:03.398Z,29.3
2018-01-13T09:29:06.065Z,29.3
2018-01-13T09:30:06.123Z,29.3
2018-01-13T09:31:03.372Z,29.3
2018-01-13T09:32:06.640Z,29.3
2018-01-13T09:33:06.251Z,29.3
2018-01-13T09:34:06.295Z,29.3
2018-01-13T09:35:06.692Z,29.3
2018-01-13T09:36:03.506Z,29.4
2018-01-13T09:37:06.834Z,29.4
2018-01-13T09:38:03.912Z,29.4
2018-01-13T09:39:03.954Z,29.4
2018-01-13T09:40:03.646Z,29.4
2018-01-13T09:41:04.013Z,29.4
2018-01-13T09:42:06.877Z,29.4
2018-01-13T09:43:06.996Z,29.5
2018-01-13T09:44:06.995Z,29.5
2018-01-13T09:45:03.882Z,29.4
2018-01-13T09:46:06.669Z,29.5
2018-01-13T09:47:06.696Z,29.5
2018-01-13T09:48:03.892Z,29.5
2018-01-13T09:49:07.077Z,29.5
2018-01-13T09:50:04.244Z,29.5
2018-01-13T09:51:03.938Z,29.5
2018-01-13T09:52:03.982Z,29.5
2018-01-13T09:53:04.084Z,29.6
2018-01-13T09:54:04.136Z,29.6
2018-01-13T09:55:04.546Z,29.5
2018-01-13T09:56:04.663Z,29.6
2018-01-13T09:57:04.297Z,29.6
2018-01-13T09:58:04.323Z,29.6
2018-01-13T09:59:04.586Z,29.6
2018-01-13T10:00:04.741Z,29.7
2018-01-13T10:01:04.819Z,29.7
2018-01-13T10:02:07.713Z,29.7
2018-01-13T10:03:04.902Z,29.7
2018-01-13T10:04:07.831Z,29.8
2018-01-13T10:05:07.573Z,29.8
2018-01-13T10:06:05.040Z,29.7
2018-01-13T10:07:07.949Z,29.8
2018-01-13T10:08:05.111Z,29.8
2018-01-13T10:09:05.254Z,29.8
2018-01-13T10:10:04.961Z,29.8
2018-01-13T10:11:08.176Z,29.8
2018-01-13T10:12:05.086Z,29.8
2018-01-13T10:13:05.131Z,29.9
2018-01-13T10:14:08.060Z,29.9
2018-01-13T10:15:08.157Z,29.9
2018-01-13T10:16:05.659Z,29.9
2018-01-13T10:17:05.473Z,30
2018-01-13T10:18:05.462Z,30
2018-01-13T10:19:05.584Z,30
2018-01-13T10:20:05.554Z,30.1
2018-01-13T10:21:05.948Z,30.1
2018-01-13T10:22:08.557Z,30.1
2018-01-13T10:23:06.083Z,30.2
2018-01-13T10:24:05.780Z,30.2
2018-01-13T10:25:09.117Z,30.3
2018-01-13T10:26:09.150Z,30.3
2018-01-13T10:27:05.983Z,30.4
2018-01-13T10:28:06.011Z,30.4
2018-01-13T10:29:06.161Z,30.5
2018-01-13T10:30:06.477Z,30.5
2018-01-13T10:31:09.356Z,30.5
2018-01-13T10:32:06.598Z,30.5
2018-01-13T10:33:09.140Z,30.5
2018-01-13T10:34:09.548Z,30.5
2018-01-13T10:35:06.494Z,30.6
2018-01-13T10:36:09.840Z,30.6
2018-01-13T10:37:09.735Z,30.6
2018-01-13T10:38:06.515Z,30.6
2018-01-13T10:39:06.606Z,30.7
2018-01-13T10:40:06.687Z,30.8
2018-01-13T10:41:06.721Z,30.8
2018-01-13T10:42:09.587Z,30.9
2018-01-13T10:43:10.000Z,30.9
2018-01-13T10:44:09.675Z,30.8
2018-01-13T10:45:10.065Z,30.8
2018-01-13T10:46:06.979Z,30.9
2018-01-13T10:47:07.074Z,30.9
2018-01-13T10:48:10.250Z,30.9
2018-01-13T10:49:10.310Z,31
2018-01-13T10:50:07.446Z,31.1
2018-01-13T10:51:07.364Z,31.2
2018-01-13T10:52:07.412Z,31.4
2018-01-13T10:53:11.110Z,31.7
2018-01-13T10:54:07.527Z,32
2018-01-13T10:55:10.192Z,32.1
2018-01-13T10:56:10.499Z,32.4
2018-01-13T10:57:10.515Z,32.6
2018-01-13T10:58:07.719Z,32.8
2018-01-13T10:59:07.464Z,33
2018-01-13T11:00:07.804Z,33.2
2018-01-13T11:01:07.634Z,33.2
2018-01-13T11:02:10.596Z,33.1
2018-01-13T11:03:08.121Z,32.9
2018-01-13T11:04:08.175Z,32.7
2018-01-13T11:05:08.254Z,32.6
2018-01-13T11:06:08.009Z,32.7
2018-01-13T11:07:13.432Z,32.7
2018-01-13T11:08:08.034Z,32.8
2018-01-13T11:09:10.941Z,32.8
2018-01-13T11:10:08.099Z,32.7
2018-01-13T11:11:08.408Z,32.6
2018-01-13T11:12:08.473Z,32.5
2018-01-13T11:13:11.482Z,32.5
2018-01-13T11:14:08.385Z,32.7
2018-01-13T11:15:11.657Z,32.8
2018-01-13T11:16:11.712Z,32.7
2018-01-13T11:17:08.845Z,32.8
2018-01-13T11:18:08.594Z,32.9
2018-01-13T11:19:08.508Z,33
2018-01-13T11:20:11.741Z,33.2
2018-01-13T11:21:08.857Z,33.3
2018-01-13T11:22:08.867Z,33.3
2018-01-13T11:23:11.796Z,33.6
2018-01-13T11:24:08.898Z,33.7
2018-01-13T11:25:11.549Z,33.5
2018-01-13T11:26:09.032Z,33.2
2018-01-13T11:27:09.097Z,33.1
2018-01-13T11:28:11.774Z,32.9
2018-01-13T11:29:09.684Z,32.7
2018-01-13T11:30:08.949Z,32.7
2018-01-13T11:31:09.301Z,32.7
2018-01-13T11:32:11.965Z,32.8
2018-01-13T11:33:11.978Z,33
2018-01-13T11:34:09.101Z,33.5
2018-01-13T11:35:12.022Z,33.9
2018-01-13T11:36:09.537Z,34.3
2018-01-13T11:37:09.227Z,34.7
2018-01-13T11:38:09.259Z,35
2018-01-13T11:39:09.302Z,35.3
2018-01-13T11:40:09.246Z,35.3
2018-01-13T11:41:09.547Z,35.1
2018-01-13T11:42:09.402Z,34.7
2018-01-13T11:43:09.435Z,34.4
2018-01-13T11:44:12.657Z,34.1
2018-01-13T11:45:09.533Z,33.9
2018-01-13T11:46:09.956Z,33.6
2018-01-13T11:47:12.492Z,33.4
2018-01-13T11:48:12.878Z,33.2
2018-01-13T11:49:09.736Z,33
2018-01-13T11:50:10.068Z,32.9
2018-01-13T11:51:09.839Z,32.8
2018-01-13T11:52:13.048Z,32.6
2018-01-13T11:53:09.909Z,32.5
2018-01-13T11:54:09.998Z,32.4
2018-01-13T11:55:13.187Z,32.3
2018-01-13T11:56:10.000Z,32.2
2018-01-13T11:57:10.027Z,32.1
2018-01-13T11:58:13.252Z,32
2018-01-13T11:59:12.978Z,32
2018-01-13T12:00:10.107Z,31.9
2018-01-13T12:01:10.155Z,31.8
2018-01-13T12:02:10.204Z,31.7
2018-01-13T12:03:10.269Z,31.7
2018-01-13T12:04:10.612Z,31.6
2018-01-13T12:05:10.388Z,31.6
2018-01-13T12:06:10.404Z,31.6
2018-01-13T12:07:13.352Z,31.5
2018-01-13T12:08:10.859Z,31.5
2018-01-13T12:09:13.488Z,31.5
2018-01-13T12:10:13.930Z,31.5
2018-01-13T12:11:10.731Z,31.5
2018-01-13T12:12:11.058Z,31.5
2018-01-13T12:13:13.978Z,31.5
2018-01-13T12:14:13.645Z,31.5
2018-01-13T12:15:10.851Z,31.5
2018-01-13T12:16:14.118Z,31.5
2018-01-13T12:17:11.011Z,31.5
2018-01-13T12:18:11.027Z,31.6
2018-01-13T12:19:11.373Z,31.5
2018-01-13T12:20:11.194Z,31.6
2018-01-13T12:21:11.488Z,31.5
2018-01-13T12:22:11.215Z,31.6
2018-01-13T12:23:14.521Z,31.6
2018-01-13T12:24:14.531Z,31.6
2018-01-13T12:25:11.690Z,31.6
2018-01-13T12:26:11.485Z,31.7
2018-01-13T12:27:14.727Z,31.7
2018-01-13T12:28:11.832Z,31.6
2018-01-13T12:29:11.616Z,31.7
2018-01-13T12:30:11.769Z,31.8
2018-01-13T12:31:11.796Z,31.8
2018-01-13T12:32:11.789Z,31.8
2018-01-13T12:33:11.896Z,31.9
2018-01-13T12:34:11.991Z,31.8
2018-01-13T12:35:15.304Z,31.9
2018-01-13T12:36:15.306Z,32.1
2018-01-13T12:37:12.498Z,32.2
2018-01-13T12:38:12.189Z,32.2
2018-01-13T12:39:12.580Z,32.3
2018-01-13T12:40:12.586Z,32.2
2018-01-13T12:41:15.242Z,32.2
2018-01-13T12:42:12.371Z,32.2
2018-01-13T12:43:12.772Z,32.5
2018-01-13T12:44:12.838Z,32.7
2018-01-13T12:45:12.565Z,33
2018-01-13T12:46:12.934Z,33.2
2018-01-13T12:47:13.002Z,33
2018-01-13T12:48:12.679Z,33
2018-01-13T12:49:12.689Z,32.9
2018-01-13T12:50:15.940Z,32.9
2018-01-13T12:51:12.840Z,32.8
2018-01-13T12:52:12.876Z,32.7
2018-01-13T12:53:13.249Z,32.6
2018-01-13T12:54:13.280Z,32.5
2018-01-13T12:55:12.950Z,32.5
2018-01-13T12:56:13.014Z,32.5
2018-01-13T12:57:13.356Z,32.4
2018-01-13T12:58:13.446Z,32.4
2018-01-13T12:59:13.567Z,32.3
2018-01-13T13:00:16.472Z,32.3
2018-01-13T13:01:16.476Z,32.3
2018-01-13T13:02:16.166Z,32.4
2018-01-13T13:03:16.576Z,32.6
2018-01-13T13:04:16.716Z,32.9
2018-01-13T13:05:13.845Z,33
2018-01-13T13:06:13.530Z,32.9
2018-01-13T13:07:13.876Z,32.7
2018-01-13T13:08:13.741Z,32.6
2018-01-13T13:09:14.012Z,32.4
2018-01-13T13:10:14.152Z,32.2
2018-01-13T13:11:17.025Z,32.2
2018-01-13T13:12:14.175Z,32
2018-01-13T13:13:13.990Z,32
2018-01-13T13:14:17.274Z,31.9
2018-01-13T13:15:16.984Z,31.8
2018-01-13T13:16:17.001Z,31.8
2018-01-13T13:17:14.530Z,31.8
2018-01-13T13:18:14.197Z,31.8
2018-01-13T13:19:17.384Z,31.8
2018-01-13T13:20:14.596Z,31.8